This demonstration page uses our WeatherBlox Daily Observations layout. Learn more.

38.89511, -77.03637

Hourly Observations for February 20, 2015

Temp ( °F °C ) Dew Point ( °F °C ) Humidity (%) Winds ( mph kmh ) Pressure ( in mb ) Visibility ( mi km ) Precip ( " mm )
12:52 am 00:52 Partly Cloudy 10 -12 -11 -24 36 36 NW 14 22 30.27 1025 10 16.09344 0 0
1:52 am 01:52 Clear 9 -13 -13 -25 36 36 NNW 9 15 30.3 1026 10 16.09344 0 0
2:52 am 02:52 Clear 9 -13 -15 -26 33 33 NW 9 15 30.3 1026 10 16.09344 0 0
3:52 am 03:52 Clear 7 -14 -15 -26 36 36 WNW 10 17 30.33 1027 10 16.09344 0 0
4:52 am 04:52 Clear 7 -14 -13 -25 39 39 WNW 7 11 30.33 1027 10 16.09344 0 0
5:52 am 05:52 Clear 7 -14 -13 -25 39 39 NNW 8 13 30.36 1028 10 16.09344 0 0
6:52 am 06:52 Clear 7 -14 -13 -25 39 39 NW 10 17 30.39 1029 10 16.09344 0 0
7:52 am 07:52 Sunny 9 -13 -11 -24 39 39 NW 9 15 30.42 1030 10 16.09344 0 0
8:52 am 08:52 Sunny 10 -12 -11 -24 36 36 WNW 13 20 30.45 1031 10 16.09344 0 0
9:52 am 09:52 Sunny 12 -11 -11 -24 34 34 WNW 15 24 30.45 1031 10 16.09344 0 0
10:52 am 10:52 Sunny 16 -9 -9 -23 31 31 NW 13 20 30.45 1031 10 16.09344 0 0
11:52 am 11:52 Sunny 16 -9 -9 -23 31 31 WNW 13 20 30.48 1032 10 16.09344 0 0
12:52 pm 12:52 Sunny 18 -8 -9 -23 29 29 W 10 17 30.48 1032 10 16.09344 0 0
1:52 pm 13:52 Sunny 19 -7 -8 -22 29 29 WNW 10 17 30.45 1031 10 16.09344 0 0
2:52 pm 14:52 Mostly Sunny 19 -7 -9 -23 27 27 W 6 9 30.48 1032 10 16.09344 0 0
3:52 pm 15:52 Mostly Sunny 21 -6 -8 -22 27 27 WNW 8 13 30.45 1031 10 16.09344 0 0
4:52 pm 16:52 Mostly Cloudy 21 -6 -11 -24 23 23 Calm 30.45 1031 10 16.09344 0 0
5:52 pm 17:52 Mostly Cloudy 19 -7 -9 -23 27 27 SW 3 6 30.48 1032 10 16.09344 0 0
6:52 pm 18:52 Partly Cloudy 19 -7 -6 -21 32 32 SSE 3 6 30.5 1033 10 16.09344 0 0
7:52 pm 19:52 Mostly Clear 18 -8 -4 -20 38 38 SSE 6 9 30.5 1033 10 16.09344 0 0
8:52 pm 20:52 Clear 18 -8 -6 -21 35 35 SSE 7 11 30.5 1033 10 16.09344 0 0
9:52 pm 21:52 Clear 18 -8 -6 -21 35 35 S 10 17 30.53 1034 10 16.09344 0 0
10:52 pm 22:52 Clear 18 -8 -2 -19 41 41 S 8 13 30.53 1034 10 16.09344 0 0
11:52 pm 23:52 Clear 16 -9 0 -18 48 48 S 8 13 30.5 1033 10 16.09344 0 0

Powered by AerisWeather